Terminal Aerodrome Forecast
Issued by NWS Wilmington, NC

Home | Current Version | Previous Version | Text Only | Print | Product List | Glossary On
Versions: 1 2 3 4 5 6 7 8 9 10 11 12 13 14 15 16
000
FTUS42 KILM 032334
TAFLBT
TAF
KLBT 032334Z 0400/0424 20010G16KT P6SM SKC
     FM040900 12004KT 6SM BR BKN020 OVC080
      TEMPO 0410/0413 2SM BR BKN010
     FM041400 04005KT P6SM VCSH BKN040
     FM042100 VRB03KT P6SM SCT050=

USA.gov is the U.S. government's official web portal to all federal, state and local government web resources and services.